Time;durP1;ratioP1;P1;durP2;ratioP2;P2;SDS_P1;SDS_P2;PMS_P1;PMS_P2;Temp;Humidity;BMP_temperature;BMP_pressure;BME280_temperature;BME280_humidity;BME280_pressure;Samples;Min_cycle;Max_cycle;Signal;HPM_P1;HPM_P2
2022/07/06 00:01:32;;;;;;;4.28;2.17;;;16.50;99.90;;;;;;5078716;28;20021;-63
2022/07/06 00:03:58;;;;;;;5.78;2.75;;;16.30;99.90;;;;;;5078696;28;20060;-61
2022/07/06 00:06:24;;;;;;;4.65;2.03;;;16.20;99.90;;;;;;5077902;28;20111;-62
2022/07/06 00:08:50;;;;;;;6.60;2.33;;;16.30;99.90;;;;;;5078556;28;20040;-62
2022/07/06 00:11:16;;;;;;;6.43;2.33;;;16.40;99.90;;;;;;5078487;28;20017;-62
2022/07/06 00:13:42;;;;;;;3.95;2.17;;;16.40;99.90;;;;;;5077661;28;20029;-62
2022/07/06 00:16:08;;;;;;;3.35;2.38;;;16.40;99.90;;;;;;5078175;28;20041;-61
2022/07/06 00:18:34;;;;;;;6.65;2.60;;;16.30;99.90;;;;;;5077492;28;20035;-62
2022/07/06 00:21:00;;;;;;;10.30;2.97;;;16.20;99.90;;;;;;5079148;28;20024;-63
2022/07/06 00:23:25;;;;;;;7.22;2.45;;;16.20;99.90;;;;;;5078277;28;20423;-62
2022/07/06 00:25:51;;;;;;;5.25;2.40;;;16.30;99.90;;;;;;5078260;28;20028;-62
2022/07/06 00:28:17;;;;;;;7.80;2.42;;;16.30;99.90;;;;;;5078176;28;20070;-62
2022/07/06 00:30:43;;;;;;;7.38;2.15;;;16.30;99.90;;;;;;5060733;28;20378;-63
2022/07/06 00:33:09;;;;;;;4.38;2.70;;;16.30;99.90;;;;;;5077381;28;20040;-62
2022/07/06 00:35:34;;;;;;;3.97;2.10;;;16.30;99.90;;;;;;5077945;28;20132;-63
2022/07/06 00:38:01;;;;;;;5.72;2.30;;;16.20;99.90;;;;;;5078058;28;20120;-62
2022/07/06 00:40:29;;;;;;;7.80;2.53;;;16.20;99.90;;;;;;5077101;28;20400;-62
2022/07/06 00:42:56;;;;;;;5.93;2.45;;;16.10;99.90;;;;;;5077081;28;20380;-62
2022/07/06 00:45:22;;;;;;;7.55;3.08;;;16.00;99.90;;;;;;5077852;28;20415;-63
2022/07/06 00:47:48;;;;;;;7.43;2.75;;;16.00;99.90;;;;;;5077008;28;20308;-62
2022/07/06 00:50:22;;;;;;;5.80;2.45;;;16.00;99.90;;;;;;5077702;28;20037;-62
2022/07/06 00:52:52;;;;;;;4.22;2.63;;;16.10;99.90;;;;;;5076971;28;20278;-62
2022/07/06 00:55:30;;;;;;;4.75;2.88;;;16.10;99.90;;;;;;5076728;28;20041;-62
2022/07/06 00:57:56;;;;;;;4.90;2.72;;;16.00;99.90;;;;;;5076817;28;20292;-62
2022/07/06 01:00:25;;;;;;;5.53;3.05;;;16.00;99.90;;;;;;5076899;28;20036;-62
2022/07/06 01:02:52;;;;;;;7.60;2.60;;;15.90;99.90;;;;;;5077466;28;20411;-63
2022/07/06 01:05:19;;;;;;;6.30;3.00;;;15.90;99.90;;;;;;5077505;28;20032;-63
2022/07/06 01:07:47;;;;;;;4.85;2.72;;;15.90;99.90;;;;;;5076739;28;20403;-63
2022/07/06 01:10:15;;;;;;;4.63;2.90;;;15.80;99.90;;;;;;5077421;28;20127;-63
2022/07/06 01:12:44;;;;;;;7.15;2.47;;;15.70;99.90;;;;;;5077349;28;20028;-62
2022/07/06 01:15:16;;;;;;;4.45;2.80;;;15.70;99.90;;;;;;5076509;28;20037;-62
2022/07/06 01:17:43;;;;;;;4.35;2.40;;;15.70;99.90;;;;;;5077369;28;20020;-62
2022/07/06 01:20:12;;;;;;;5.05;2.38;;;15.70;99.90;;;;;;5077269;28;20081;-63
2022/07/06 01:22:38;;;;;;;4.40;2.63;;;15.70;99.90;;;;;;5059780;28;20090;-61
2022/07/06 01:25:05;;;;;;;5.63;2.30;;;15.70;99.90;;;;;;5076514;28;20040;-63
2022/07/06 01:27:34;;;;;;;6.13;2.75;;;15.60;99.90;;;;;;5059681;28;20036;-63
2022/07/06 01:30:00;;;;;;;7.22;2.75;;;15.60;99.90;;;;;;5076923;28;20045;-62
2022/07/06 01:32:26;;;;;;;4.72;2.95;;;15.60;99.90;;;;;;5076394;28;20299;-62
2022/07/06 01:34:53;;;;;;;6.05;2.92;;;15.50;99.90;;;;;;5077304;28;20085;-63
2022/07/06 01:37:19;;;;;;;5.60;2.85;;;15.50;99.90;;;;;;5077029;28;20095;-63
2022/07/06 01:39:47;;;;;;;7.97;3.42;;;15.50;99.90;;;;;;5093371;28;20049;-62
2022/07/06 01:42:13;;;;;;;7.13;2.95;;;15.50;99.90;;;;;;5076966;28;20056;-62
2022/07/06 01:44:39;;;;;;;6.85;3.13;;;15.40;99.90;;;;;;5059649;28;20058;-61
2022/07/06 01:47:05;;;;;;;4.75;3.28;;;15.40;99.90;;;;;;5077186;28;20036;-61
2022/07/06 01:49:31;;;;;;;4.03;3.00;;;15.30;99.90;;;;;;5076918;28;20032;-63
2022/07/06 01:51:57;;;;;;;6.13;3.30;;;15.20;99.90;;;;;;5076147;28;20032;-61
2022/07/06 01:54:23;;;;;;;6.20;3.03;;;15.20;99.90;;;;;;5076043;28;20052;-62
2022/07/06 01:56:49;;;;;;;6.50;3.30;;;15.20;99.90;;;;;;5076106;28;20404;-61
2022/07/06 01:59:14;;;;;;;4.93;3.03;;;15.20;99.90;;;;;;5076876;28;20035;-62
2022/07/06 02:01:40;;;;;;;5.90;3.28;;;15.10;99.90;;;;;;5076807;28;20108;-62
2022/07/06 02:04:06;;;;;;;4.53;3.33;;;15.10;99.90;;;;;;5076732;28;20028;-62
2022/07/06 02:06:32;;;;;;;4.72;3.10;;;15.20;99.90;;;;;;5059299;28;20296;-62
2022/07/06 02:08:58;;;;;;;6.32;3.03;;;15.30;99.90;;;;;;5076054;28;20059;-62
2022/07/06 02:11:25;;;;;;;5.93;3.75;;;15.40;99.90;;;;;;5075945;28;20124;-62
2022/07/06 02:13:50;;;;;;;5.53;3.80;;;15.40;99.90;;;;;;5076882;28;20379;-62
2022/07/06 02:16:16;;;;;;;5.93;3.80;;;15.40;99.90;;;;;;5075822;28;20098;-61
2022/07/06 02:18:42;;;;;;;4.38;3.60;;;15.50;99.90;;;;;;5076628;28;20135;-62
2022/07/06 02:21:08;;;;;;;4.95;3.70;;;15.50;99.90;;;;;;5075787;28;20353;-62
2022/07/06 02:23:34;;;;;;;6.05;4.20;;;15.40;99.90;;;;;;5075847;28;20037;-62
2022/07/06 02:26:00;;;;;;;6.00;3.58;;;15.30;99.90;;;;;;5075820;28;20082;-62
2022/07/06 02:28:26;;;;;;;6.32;4.35;;;15.40;99.90;;;;;;5076500;28;20028;-62
2022/07/06 02:30:52;;;;;;;6.93;4.03;;;15.50;99.90;;;;;;5077159;28;20032;-62
2022/07/06 02:33:17;;;;;;;6.32;4.10;;;15.60;99.90;;;;;;5075700;28;20404;-61
2022/07/06 02:35:43;;;;;;;6.43;4.22;;;15.60;99.90;;;;;;5076381;28;20040;-62
2022/07/06 02:38:11;;;;;;;6.10;4.00;;;15.70;99.90;;;;;;5059325;28;20028;-62
2022/07/06 02:40:38;;;;;;;4.93;3.55;;;15.70;99.90;;;;;;5076444;28;20031;-62
2022/07/06 02:43:04;;;;;;;6.93;4.30;;;15.70;99.90;;;;;;5062518;28;20144;-62
2022/07/06 02:45:31;;;;;;;5.28;3.97;;;15.50;99.90;;;;;;5079656;28;20060;-61
2022/07/06 02:47:57;;;;;;;6.22;4.25;;;15.50;99.90;;;;;;5080173;28;20119;-62
2022/07/06 02:50:24;;;;;;;4.50;4.10;;;15.50;99.90;;;;;;5079276;28;20051;-62
2022/07/06 02:52:51;;;;;;;6.50;4.60;;;15.40;99.90;;;;;;5079147;28;20037;-62
2022/07/06 02:55:17;;;;;;;4.85;4.32;;;15.40;99.90;;;;;;5079080;28;20045;-62
2022/07/06 02:57:43;;;;;;;5.35;3.80;;;15.50;99.90;;;;;;5062556;28;20405;-62
2022/07/06 03:00:11;;;;;;;5.22;3.70;;;15.50;99.90;;;;;;5062756;28;20032;-62
2022/07/06 03:02:38;;;;;;;5.22;3.55;;;15.50;99.90;;;;;;5079070;28;20029;-62
2022/07/06 03:05:05;;;;;;;6.25;3.60;;;15.50;99.90;;;;;;5078976;28;20316;-62
2022/07/06 03:07:30;;;;;;;5.07;4.05;;;15.60;99.90;;;;;;5079665;28;20086;-62
2022/07/06 03:09:56;;;;;;;6.07;4.30;;;15.70;99.90;;;;;;5062310;28;20040;-62
2022/07/06 03:12:22;;;;;;;6.07;3.58;;;15.70;99.90;;;;;;5078939;28;20278;-64
2022/07/06 03:14:48;;;;;;;5.65;3.80;;;15.80;99.90;;;;;;5078804;28;20362;-62
2022/07/06 03:17:14;;;;;;;5.85;3.67;;;15.80;99.90;;;;;;5078865;28;20108;-61
2022/07/06 03:19:41;;;;;;;6.30;3.80;;;15.90;99.90;;;;;;5078744;28;20024;-62
2022/07/06 03:22:07;;;;;;;5.05;3.83;;;15.80;99.90;;;;;;5078737;28;20037;-61
2022/07/06 03:24:33;;;;;;;8.55;3.95;;;15.80;99.90;;;;;;5078238;28;20130;-61
2022/07/06 03:26:59;;;;;;;9.02;5.57;;;15.70;99.90;;;;;;5079359;28;20037;-62
2022/07/06 03:29:25;;;;;;;6.00;3.40;;;15.80;99.90;;;;;;5078519;28;20397;-62
2022/07/06 03:31:51;;;;;;;7.35;3.63;;;15.90;99.90;;;;;;5078474;28;20098;-62
2022/07/06 03:34:17;;;;;;;5.53;3.50;;;15.90;99.90;;;;;;5078340;28;20040;-61
2022/07/06 03:36:43;;;;;;;6.30;3.63;;;15.90;99.90;;;;;;5078918;28;20321;-62
2022/07/06 03:39:09;;;;;;;8.30;3.47;;;15.90;99.90;;;;;;5078952;28;20036;-61
2022/07/06 03:41:37;;;;;;;5.93;3.30;;;15.90;99.90;;;;;;5078218;28;20094;-62
2022/07/06 03:44:03;;;;;;;6.05;3.65;;;15.90;99.90;;;;;;5078279;28;20036;-62
2022/07/06 03:46:29;;;;;;;4.45;3.17;;;15.80;99.90;;;;;;5078258;28;20315;-62
2022/07/06 03:48:56;;;;;;;4.47;3.40;;;15.80;99.90;;;;;;5061481;28;20028;-62
2022/07/06 03:51:21;;;;;;;4.88;3.30;;;15.90;99.90;;;;;;5078107;28;20063;-62
2022/07/06 03:53:47;;;;;;;7.45;3.95;;;15.80;99.90;;;;;;5061410;28;20345;-62
2022/07/06 03:56:29;;;;;;;10.15;3.80;;;15.70;99.90;;;;;;5077797;28;20056;-61
2022/07/06 03:59:02;;;;;;;4.53;3.22;;;15.70;99.90;;;;;;5064126;28;20039;-62
2022/07/06 04:01:32;;;;;;;5.47;3.15;;;15.80;99.90;;;;;;5078009;28;20028;-62
2022/07/06 04:03:58;;;;;;;5.50;3.63;;;15.70;99.90;;;;;;5077796;28;20389;-62
2022/07/06 04:06:26;;;;;;;6.18;3.65;;;15.70;99.90;;;;;;5077751;28;20067;-61
2022/07/06 04:08:52;;;;;;;8.60;4.38;;;15.70;99.90;;;;;;5077829;28;20032;-62
2022/07/06 04:11:18;;;;;;;7.20;4.63;;;15.60;99.90;;;;;;5077733;28;20289;-61
2022/07/06 04:13:44;;;;;;;6.50;3.92;;;15.60;99.90;;;;;;5077574;28;20119;-62
2022/07/06 04:16:10;;;;;;;4.88;4.03;;;15.60;99.90;;;;;;5077600;28;20036;-62
2022/07/06 04:18:36;;;;;;;8.88;4.13;;;15.60;99.90;;;;;;5077967;28;20032;-61
2022/07/06 04:21:03;;;;;;;10.32;4.93;;;15.70;99.90;;;;;;5077612;28;20043;-61
2022/07/06 04:23:32;;;;;;;6.63;3.67;;;15.70;99.90;;;;;;5077516;28;20045;-61
2022/07/06 04:25:58;;;;;;;6.22;4.00;;;15.70;99.90;;;;;;5077446;28;20029;-62
2022/07/06 04:28:25;;;;;;;6.43;3.80;;;15.60;99.90;;;;;;5044665;28;20032;-61
2022/07/06 04:30:52;;;;;;;6.93;4.00;;;15.60;99.90;;;;;;5060859;28;20278;-62
2022/07/06 04:33:21;;;;;;;8.75;4.60;;;15.50;99.90;;;;;;5061134;28;20048;-62
2022/07/06 04:35:48;;;;;;;7.60;4.93;;;15.40;99.90;;;;;;5060853;28;20047;-61
2022/07/06 04:38:15;;;;;;;6.63;4.63;;;15.30;99.90;;;;;;5077921;28;20047;-62
2022/07/06 04:40:42;;;;;;;7.68;4.20;;;15.20;99.90;;;;;;5077314;28;20042;-61
2022/07/06 04:43:12;;;;;;;6.53;4.53;;;15.10;99.90;;;;;;5061352;28;20067;-62
2022/07/06 04:45:39;;;;;;;9.40;4.72;;;15.20;99.90;;;;;;5077117;28;20028;-61
2022/07/06 04:48:08;;;;;;;8.50;4.65;;;15.20;99.90;;;;;;5077164;28;20094;-61
2022/07/06 04:50:35;;;;;;;8.73;5.00;;;15.30;99.90;;;;;;5076991;28;20029;-62
2022/07/06 04:53:03;;;;;;;7.75;5.57;;;15.40;99.90;;;;;;5060537;28;20024;-62
2022/07/06 04:55:30;;;;;;;10.38;5.20;;;15.30;99.90;;;;;;5060243;28;20057;-62
2022/07/06 04:57:56;;;;;;;10.95;5.82;;;15.30;99.90;;;;;;5076682;28;20041;-62
2022/07/06 05:00:23;;;;;;;10.10;5.00;;;15.30;99.90;;;;;;5060235;28;20345;-62
2022/07/06 05:02:49;;;;;;;8.60;5.43;;;15.30;99.90;;;;;;5077529;28;20039;-62
2022/07/06 05:05:16;;;;;;;8.07;5.60;;;15.30;99.90;;;;;;5076212;28;20174;-62
2022/07/06 05:07:43;;;;;;;8.60;5.55;;;15.40;99.90;;;;;;5077412;28;20332;-62
2022/07/06 05:10:11;;;;;;;8.75;5.97;;;15.50;99.90;;;;;;5059991;28;20166;-62
2022/07/06 05:12:39;;;;;;;7.90;6.22;;;15.60;99.90;;;;;;5060189;28;20063;-64
2022/07/06 05:15:06;;;;;;;10.13;6.47;;;15.60;99.90;;;;;;5076346;28;20427;-63
2022/07/06 05:17:33;;;;;;;9.52;6.72;;;15.40;99.90;;;;;;5076508;28;20028;-63
2022/07/06 05:20:00;;;;;;;14.23;6.40;;;15.40;99.90;;;;;;5077278;28;20025;-64
2022/07/06 05:22:30;;;;;;;8.88;5.95;;;15.40;99.90;;;;;;5076444;28;20111;-64
2022/07/06 05:24:56;;;;;;;12.27;5.97;;;15.50;99.90;;;;;;5076396;28;20043;-63
2022/07/06 05:27:22;;;;;;;10.45;6.03;;;15.60;99.90;;;;;;5059766;28;20036;-63
2022/07/06 05:29:48;;;;;;;10.30;6.35;;;15.60;99.90;;;;;;5076363;28;20082;-62
2022/07/06 05:32:15;;;;;;;10.30;6.00;;;15.70;99.90;;;;;;5076297;28;20167;-62
2022/07/06 05:34:41;;;;;;;10.45;6.60;;;15.90;99.90;;;;;;5076215;28;20060;-62
2022/07/06 05:37:07;;;;;;;10.63;5.90;;;16.00;99.90;;;;;;5076169;28;20435;-62
2022/07/06 05:39:34;;;;;;;11.52;6.40;;;16.10;99.90;;;;;;5076164;28;20051;-62
2022/07/06 05:42:00;;;;;;;7.35;5.70;;;16.20;99.90;;;;;;5076202;28;20346;-62
2022/07/06 05:44:26;;;;;;;11.77;6.10;;;16.10;99.90;;;;;;5077176;28;20024;-62
2022/07/06 05:50:11;;;;;;;9.48;5.68;;;16.30;99.90;;;;;;5077376;28;20091;-62
2022/07/06 05:52:22;;;;;;;6.95;4.78;;;16.60;99.90;;;;;;5076428;28;20278;-61
2022/07/06 05:54:48;;;;;;;8.68;4.72;;;16.70;99.90;;;;;;5076586;28;20078;-61
2022/07/06 05:57:14;;;;;;;8.35;4.70;;;16.90;99.90;;;;;;5059376;28;20040;-62
2022/07/06 05:59:40;;;;;;;7.90;4.35;;;16.90;99.90;;;;;;5059346;28;20025;-61
2022/07/06 06:02:06;;;;;;;6.55;4.13;;;17.00;99.90;;;;;;5059369;28;20025;-61
2022/07/06 06:04:32;;;;;;;7.00;4.05;;;17.10;99.90;;;;;;5042853;28;20033;-61
2022/07/06 06:06:58;;;;;;;6.97;2.83;;;17.30;99.90;;;;;;5075936;28;20404;-61
2022/07/06 06:09:24;;;;;;;6.10;3.28;;;17.40;99.90;;;;;;5075988;28;20059;-60
2022/07/06 06:11:51;;;;;;;6.97;2.80;;;17.70;99.90;;;;;;5076128;28;20087;-61
2022/07/06 06:14:17;;;;;;;9.40;3.20;;;17.70;99.90;;;;;;5075782;28;20056;-61
2022/07/06 06:16:43;;;;;;;6.50;2.75;;;17.80;99.90;;;;;;5078560;28;20032;-61
2022/07/06 06:19:08;;;;;;;4.60;2.50;;;17.90;99.90;;;;;;5080309;28;20081;-61
2022/07/06 06:21:34;;;;;;;5.70;2.35;;;18.00;99.90;;;;;;5097205;28;20304;-60
2022/07/06 06:24:00;;;;;;;4.60;2.28;;;18.20;99.90;;;;;;5079808;28;20028;-60
2022/07/06 06:26:26;;;;;;;4.85;1.73;;;18.30;99.90;;;;;;5080970;28;20040;-60
2022/07/06 06:28:51;;;;;;;4.22;1.50;;;18.40;99.90;;;;;;5080438;28;20035;-62
2022/07/06 06:31:17;;;;;;;4.32;1.20;;;18.40;99.90;;;;;;5080399;28;20033;-61
2022/07/06 06:33:43;;;;;;;8.25;1.50;;;18.50;99.90;;;;;;5080385;28;20190;-61
2022/07/06 06:36:09;;;;;;;2.55;0.90;;;18.50;99.90;;;;;;5079476;28;20037;-61
2022/07/06 06:38:34;;;;;;;3.45;1.30;;;18.50;99.90;;;;;;5080692;28;20051;-60
2022/07/06 06:41:01;;;;;;;7.78;1.65;;;18.60;99.90;;;;;;5063024;28;20127;-60
2022/07/06 06:43:27;;;;;;;4.80;1.23;;;18.80;99.90;;;;;;5080116;28;20342;-60
2022/07/06 06:46:05;;;;;;;5.93;1.30;;;18.80;99.90;;;;;;5079403;28;20036;-64
2022/07/06 06:48:31;;;;;;;2.05;1.33;;;19.00;99.90;;;;;;5079410;28;20039;-61
2022/07/06 06:50:57;;;;;;;3.70;1.35;;;18.80;99.90;;;;;;5080678;28;20052;-62
2022/07/06 06:53:23;;;;;;;4.32;1.40;;;18.90;99.90;;;;;;5079964;28;20036;-62
2022/07/06 06:55:49;;;;;;;6.00;1.00;;;18.90;99.90;;;;;;5078968;28;20048;-62
2022/07/06 06:58:15;;;;;;;6.13;1.45;;;18.90;99.90;;;;;;5079180;28;20082;-61
2022/07/06 07:00:43;;;;;;;3.63;1.20;;;19.20;99.90;;;;;;5079640;28;20039;-63
2022/07/06 07:03:10;;;;;;;5.03;1.30;;;19.10;99.90;;;;;;5079167;28;20103;-65
2022/07/06 07:05:35;;;;;;;5.28;1.42;;;18.90;99.90;;;;;;5079791;28;20048;-63
2022/07/06 07:08:02;;;;;;;5.90;1.60;;;18.60;99.90;;;;;;5079068;28;20395;-63
2022/07/06 07:10:28;;;;;;;4.30;1.60;;;18.70;99.90;;;;;;5079646;28;20037;-61
2022/07/06 07:12:53;;;;;;;5.15;1.70;;;18.80;99.90;;;;;;5079512;28;20044;-61
2022/07/06 07:15:19;;;;;;;7.97;1.92;;;19.00;99.90;;;;;;5078900;28;20037;-62
2022/07/06 07:17:45;;;;;;;3.22;1.23;;;19.20;99.90;;;;;;5078791;28;20048;-63
2022/07/06 07:20:11;;;;;;;5.30;1.27;;;19.30;99.90;;;;;;5079517;28;20028;-63
2022/07/06 07:22:37;;;;;;;4.03;1.00;;;19.40;99.90;;;;;;5079431;28;20040;-64
2022/07/06 07:25:04;;;;;;;2.38;0.70;;;19.20;99.90;;;;;;5078866;28;20312;-62
2022/07/06 07:27:30;;;;;;;3.30;0.77;;;19.40;99.90;;;;;;5078907;28;20032;-62
2022/07/06 07:29:56;;;;;;;3.42;0.85;;;19.60;99.90;;;;;;5079375;28;20028;-63
2022/07/06 07:32:22;;;;;;;2.92;1.20;;;19.70;99.90;;;;;;5079253;28;20102;-62
2022/07/06 07:34:47;;;;;;;2.50;0.90;;;19.70;99.90;;;;;;5079114;28;20336;-62
2022/07/06 07:37:13;;;;;;;2.83;0.88;;;19.40;99.90;;;;;;5079541;28;20289;-66
2022/07/06 07:39:39;;;;;;;1.85;0.80;;;19.20;99.90;;;;;;5078520;28;20052;-63
2022/07/06 07:42:05;;;;;;;3.38;0.85;;;19.00;99.90;;;;;;5061911;28;20037;-63
2022/07/06 07:44:31;;;;;;;5.80;1.08;;;19.30;99.90;;;;;;5079331;28;20424;-62
2022/07/06 07:46:56;;;;;;;6.00;1.27;;;19.40;99.90;;;;;;5079388;28;20029;-63
2022/07/06 07:49:22;;;;;;;2.92;1.10;;;19.40;99.90;;;;;;5078310;28;20407;-62
2022/07/06 07:51:49;;;;;;;1.98;1.10;;;19.50;99.90;;;;;;5061510;28;20032;-62
2022/07/06 07:54:15;;;;;;;3.05;1.20;;;19.70;99.90;;;;;;5078627;28;20407;-62
2022/07/06 07:56:41;;;;;;;5.30;1.13;;;19.90;99.90;;;;;;5078103;28;20036;-62
2022/07/06 07:59:07;;;;;;;3.67;1.10;;;19.70;99.90;;;;;;5078812;28;20029;-62
2022/07/06 08:01:34;;;;;;;4.78;1.23;;;19.90;99.90;;;;;;5078009;28;20024;-63
2022/07/06 08:04:00;;;;;;;6.13;1.30;;;20.00;99.90;;;;;;5078691;28;20029;-63
2022/07/06 08:06:26;;;;;;;5.68;1.45;;;20.40;99.90;;;;;;5077887;28;20059;-63
2022/07/06 08:08:52;;;;;;;4.13;0.77;;;20.60;99.90;;;;;;5078363;28;20029;-62
2022/07/06 08:11:17;;;;;;;6.32;1.20;;;20.70;99.90;;;;;;5077793;28;20083;-63
2022/07/06 08:13:43;;;;;;;6.57;1.17;;;20.80;99.90;;;;;;5078578;28;20225;-64
2022/07/06 08:16:09;;;;;;;4.05;1.33;;;20.80;99.90;;;;;;5078109;28;20036;-62
2022/07/06 08:18:36;;;;;;;4.63;1.02;;;20.90;99.90;;;;;;5077704;28;20376;-64
2022/07/06 08:21:02;;;;;;;3.20;1.00;;;20.70;99.90;;;;;;5078406;28;20115;-63
2022/07/06 08:23:28;;;;;;;1.80;0.90;;;20.20;99.90;;;;;;5078277;28;20075;-63
2022/07/06 08:25:54;;;;;;;3.63;0.90;;;19.70;99.90;;;;;;5060790;28;20056;-64
2022/07/06 08:28:20;;;;;;;2.88;1.02;;;19.80;99.90;;;;;;5078123;28;20060;-62
2022/07/06 08:30:45;;;;;;;5.45;1.10;;;19.90;99.90;;;;;;5078112;28;20133;-63
2022/07/06 08:33:11;;;;;;;2.63;1.02;;;20.20;99.90;;;;;;5077374;28;20415;-63
2022/07/06 08:35:37;;;;;;;2.33;0.98;;;20.50;99.90;;;;;;5078046;28;20304;-62
2022/07/06 08:38:03;;;;;;;2.90;0.90;;;20.60;99.90;;;;;;5078093;28;20300;-66
2022/07/06 08:40:34;;;;;;;3.53;1.02;;;20.20;99.90;;;;;;5077148;28;20024;-66
2022/07/06 08:43:00;;;;;;;2.17;1.08;;;19.90;99.90;;;;;;5078052;28;20158;-64
2022/07/06 08:45:27;;;;;;;2.47;0.90;;;20.40;99.90;;;;;;5077727;28;20089;-63
2022/07/06 08:47:55;;;;;;;4.03;1.20;;;21.30;99.90;;;;;;5077765;28;20296;-63
2022/07/06 08:50:21;;;;;;;4.70;1.27;;;22.00;99.90;;;;;;5077738;28;20032;-65
2022/07/06 08:52:49;;;;;;;2.65;0.80;;;22.20;99.90;;;;;;5077716;28;20032;-63
2022/07/06 08:55:16;;;;;;;2.30;1.08;;;22.50;99.90;;;;;;5060335;28;20083;-64
2022/07/06 08:57:44;;;;;;;4.13;1.52;;;22.40;99.90;;;;;;5077644;28;20135;-62
2022/07/06 09:00:11;;;;;;;3.35;1.30;;;22.60;99.90;;;;;;5077592;28;20037;-65
2022/07/06 09:02:37;;;;;;;5.18;1.55;;;22.70;99.90;;;;;;5077026;28;20285;-64
2022/07/06 09:05:04;;;;;;;2.53;1.00;;;22.60;99.90;;;;;;5076857;28;20033;-63
2022/07/06 09:07:30;;;;;;;2.17;1.00;;;22.70;99.90;;;;;;5076653;28;20309;-65
2022/07/06 09:09:59;;;;;;;3.85;1.10;;;21.90;99.90;;;;;;5077438;28;20131;-64
2022/07/06 09:12:27;;;;;;;1.85;0.73;;;22.00;99.90;;;;;;5076721;28;20033;-65
2022/07/06 09:14:56;;;;;;;1.85;0.70;;;22.40;99.90;;;;;;5076533;28;20048;-64
2022/07/06 09:17:26;;;;;;;4.00;1.05;;;22.70;99.90;;;;;;5077602;28;20028;-66
2022/07/06 09:19:53;;;;;;;2.47;1.08;;;22.80;99.90;;;;;;5076554;28;20032;-63
2022/07/06 09:22:31;;;;;;;3.83;1.33;;;23.00;99.90;;;;;;5076825;28;20104;-61
2022/07/06 09:25:05;;;;;;;6.28;1.13;;;23.00;99.90;;;;;;5076368;28;20094;-63
2022/07/06 09:27:31;;;;;;;3.63;1.00;;;22.90;99.90;;;;;;5077178;28;20042;-66
2022/07/06 09:30:01;;;;;;;2.25;1.13;;;22.80;99.90;;;;;;5077063;28;20085;-66
2022/07/06 09:32:27;;;;;;;2.55;1.17;;;22.50;99.90;;;;;;5077101;28;20043;-67
2022/07/06 09:34:54;;;;;;;4.13;1.33;;;22.40;99.90;;;;;;5076392;28;20032;-65
2022/07/06 09:37:23;;;;;;;2.28;1.27;;;21.70;99.90;;;;;;5077045;28;20029;-65
2022/07/06 09:39:49;;;;;;;3.92;1.30;;;21.80;99.90;;;;;;5076839;28;20032;-62
2022/07/06 09:42:15;;;;;;;4.25;1.13;;;22.40;99.90;;;;;;5076224;28;20107;-63
2022/07/06 09:44:41;;;;;;;2.90;1.00;;;22.80;99.90;;;;;;5076983;28;20038;-63
2022/07/06 09:47:09;;;;;;;3.22;1.20;;;22.80;99.90;;;;;;5076827;28;20025;-62
2022/07/06 09:49:36;;;;;;;6.20;1.10;;;23.10;99.90;;;;;;5076905;28;20048;-63
2022/07/06 09:52:09;;;;;;;2.38;1.10;;;23.30;99.90;;;;;;5076660;28;20305;-62
2022/07/06 09:54:38;;;;;;;2.67;0.93;;;23.40;99.90;;;;;;5075935;28;20315;-62
2022/07/06 09:57:05;;;;;;;3.55;0.90;;;23.60;99.90;;;;;;5076608;28;20438;-62
2022/07/06 09:59:33;;;;;;;2.78;0.80;;;23.90;99.90;;;;;;5077206;28;20028;-62
2022/07/06 10:02:00;;;;;;;2.22;0.80;;;24.20;99.90;;;;;;5076752;28;20087;-63
2022/07/06 10:04:28;;;;;;;2.95;1.00;;;24.50;99.90;;;;;;5076762;28;20086;-62
2022/07/06 10:06:56;;;;;;;2.40;0.98;;;24.70;99.90;;;;;;5076713;28;20107;-63
2022/07/06 10:09:23;;;;;;;2.47;1.45;;;25.10;99.90;;;;;;5076731;28;20350;-62
2022/07/06 10:11:55;;;;;;;5.30;1.00;;;25.40;99.90;;;;;;5075832;28;20017;-63
2022/07/06 10:14:27;;;;;;;3.60;1.20;;;25.20;99.90;;;;;;5075941;28;20292;-64
2022/07/06 10:16:56;;;;;;;3.78;1.20;;;24.90;99.90;;;;;;5076079;28;20028;-62
2022/07/06 10:19:22;;;;;;;3.00;1.17;;;24.80;99.90;;;;;;5076701;28;20059;-64
2022/07/06 10:21:49;;;;;;;5.25;1.20;;;24.20;99.90;;;;;;5076659;28;20036;-63
2022/07/06 10:24:15;;;;;;;4.43;1.40;;;24.50;99.90;;;;;;5076579;28;20304;-62
2022/07/06 10:26:42;;;;;;;4.88;1.25;;;24.40;99.90;;;;;;5075777;28;20125;-62
2022/07/06 10:29:08;;;;;;;2.88;0.95;;;24.00;99.90;;;;;;5076340;28;20032;-62
2022/07/06 10:31:38;;;;;;;3.60;1.17;;;24.40;99.90;;;;;;5059063;28;20289;-62
2022/07/06 10:34:07;;;;;;;4.68;1.08;;;24.80;99.90;;;;;;5075721;28;20423;-62
2022/07/06 10:36:38;;;;;;;3.63;1.20;;;24.90;99.90;;;;;;5076858;28;20276;-62
2022/07/06 10:41:02;;;;;;;3.33;1.10;;;25.20;99.90;;;;;;5076348;28;20324;-62
2022/07/06 10:41:50;;;;;;;1.80;1.13;;;25.20;99.90;;;;;;5075816;28;20297;-63
2022/07/06 10:44:17;;;;;;;1.90;1.17;;;25.40;99.90;;;;;;5076051;28;20032;-62
2022/07/06 10:46:53;;;;;;;5.15;1.63;;;25.20;99.90;;;;;;5076346;28;20127;-62
2022/07/06 10:49:21;;;;;;;3.53;1.30;;;25.40;99.90;;;;;;5075771;28;20036;-62
2022/07/06 10:51:47;;;;;;;6.18;1.40;;;25.50;99.90;;;;;;5076650;28;20323;-62
2022/07/06 10:54:15;;;;;;;2.70;1.20;;;25.40;99.90;;;;;;5076091;28;20305;-63
2022/07/06 10:56:45;;;;;;;6.35;1.27;;;25.10;99.90;;;;;;5076221;28;20105;-62
2022/07/06 10:59:12;;;;;;;4.35;1.30;;;24.10;99.90;;;;;;5076306;28;20028;-62
2022/07/06 11:01:38;;;;;;;4.70;1.40;;;24.30;99.90;;;;;;5076620;28;20031;-65
2022/07/06 11:04:07;;;;;;;5.53;1.50;;;25.00;99.90;;;;;;5079415;28;20337;-62
2022/07/06 11:06:38;;;;;;;1.67;1.10;;;24.40;99.90;;;;;;5079075;28;20028;-61
2022/07/06 11:09:10;;;;;;;13.38;1.65;;;24.80;99.90;;;;;;5079826;28;20086;-62
2022/07/06 11:11:35;;;;;;;5.13;1.40;;;25.00;99.90;;;;;;5079461;28;20359;-61
2022/07/06 11:14:05;;;;;;;3.03;1.20;;;25.80;99.90;;;;;;5079687;28;20060;-62
2022/07/06 11:16:37;;;;;;;4.40;1.02;;;26.70;99.90;;;;;;5080029;28;20460;-61
2022/07/06 11:19:11;;;;;;;6.10;1.30;;;26.60;99.90;;;;;;5080212;28;20288;-62
2022/07/06 11:21:49;;;;;;;4.07;1.10;;;27.00;99.90;;;;;;5079514;28;20392;-61
2022/07/06 11:24:15;;;;;;;3.47;1.10;;;27.60;99.90;;;;;;5079620;28;20040;-62
2022/07/06 11:26:43;;;;;;;2.00;0.98;;;28.00;99.90;;;;;;5079823;28;20037;-62
2022/07/06 11:29:10;;;;;;;2.65;1.00;;;28.00;99.90;;;;;;5079513;28;20040;-62
2022/07/06 11:31:42;;;;;;;3.10;0.95;;;27.60;99.60;;;;;;5079430;28;20181;-63
2022/07/06 11:34:10;;;;;;;2.88;1.00;;;26.80;99.90;;;;;;5079876;28;20043;-65
2022/07/06 11:36:38;;;;;;;6.00;1.10;;;26.60;99.90;;;;;;5078403;28;20305;-67
2022/07/06 11:39:07;;;;;;;3.03;1.10;;;26.40;99.90;;;;;;5078759;28;20503;-62
2022/07/06 11:41:33;;;;;;;4.68;1.48;;;26.40;99.40;;;;;;5079180;28;20094;-59
2022/07/06 11:44:00;;;;;;;7.00;1.17;;;26.60;99.00;;;;;;5078601;28;20401;-61
2022/07/06 11:46:34;;;;;;;6.38;0.90;;;26.20;99.00;;;;;;5078349;28;20395;-61
2022/07/06 11:49:02;;;;;;;5.60;1.10;;;25.60;99.90;;;;;;5078322;28;20032;-61
2022/07/06 11:51:30;;;;;;;1.77;1.00;;;25.50;99.90;;;;;;5078998;28;20440;-60
2022/07/06 11:54:00;;;;;;;3.85;0.93;;;25.80;99.00;;;;;;5078729;28;20044;-60
2022/07/06 11:56:29;;;;;;;1.65;0.80;;;26.00;98.80;;;;;;5078106;28;20318;-63
2022/07/06 11:58:59;;;;;;;4.25;1.00;;;26.10;98.40;;;;;;5061277;28;20037;-62
2022/07/06 12:01:27;;;;;;;1.23;0.70;;;26.40;98.00;;;;;;5078782;28;20053;-63
2022/07/06 12:03:57;;;;;;;3.83;1.10;;;26.10;98.70;;;;;;5078769;28;20331;-62
2022/07/06 12:06:24;;;;;;;3.97;1.23;;;26.30;99.90;;;;;;5078966;28;20024;-63
2022/07/06 12:08:51;;;;;;;4.82;1.25;;;26.80;98.90;;;;;;5078618;28;20102;-64
2022/07/06 12:11:29;;;;;;;7.18;1.50;;;27.60;98.30;;;;;;5078603;28;20273;-65
2022/07/06 12:13:58;;;;;;;4.68;1.40;;;26.20;99.90;;;;;;5061200;28;20388;-63
2022/07/06 12:16:34;;;;;;;3.75;1.40;;;26.90;99.70;;;;;;5077574;28;20020;-62
2022/07/06 12:19:00;;;;;;;2.90;1.08;;;27.70;98.10;;;;;;5078342;28;20090;-63
2022/07/06 12:21:26;;;;;;;4.72;1.50;;;27.30;98.40;;;;;;5077716;28;20037;-63
2022/07/06 12:23:54;;;;;;;2.78;1.10;;;27.70;97.20;;;;;;5060898;28;20043;-62
2022/07/06 12:26:25;;;;;;;5.30;1.40;;;27.30;96.20;;;;;;5078262;28;20456;-62
2022/07/06 12:29:10;;;;;;;3.63;1.20;;;26.90;97.60;;;;;;5077546;28;20062;-62
2022/07/06 12:31:53;;;;;;;4.30;1.40;;;27.50;98.20;;;;;;5078235;28;20150;-63
2022/07/06 12:34:27;;;;;;;5.05;1.40;;;29.80;94.80;;;;;;5078678;28;20040;-64
2022/07/06 12:36:56;;;;;;;3.38;1.20;;;29.40;93.30;;;;;;5078081;28;20024;-65
2022/07/06 12:39:27;;;;;;;4.55;1.30;;;28.40;94.00;;;;;;5078005;28;20357;-67
2022/07/06 12:41:54;;;;;;;3.95;1.60;;;26.90;95.90;;;;;;5077335;28;20408;-63
2022/07/06 12:44:23;;;;;;;6.15;1.77;;;26.50;97.70;;;;;;5077954;28;20021;-62
2022/07/06 12:47:03;;;;;;;5.78;2.00;;;27.60;95.90;;;;;;5077907;28;20033;-64
2022/07/06 12:49:29;;;;;;;3.33;1.55;;;28.30;94.40;;;;;;5077869;28;20033;-65